Time;durP1;ratioP1;P1;durP2;ratioP2;P2;SDS_P1;SDS_P2;PMS_P1;PMS_P2;Temp;Humidity;BMP_temperature;BMP_pressure;BME280_temperature;BME280_humidity;BME280_pressure;Samples;Min_cycle;Max_cycle;Signal;HPM_P1;HPM_P2
2024/01/09 00:01:43;;;;;;;11.18;6.97;;;7.50;65.40;;;;;;4998792;28;20027;-69
2024/01/09 00:04:09;;;;;;;12.27;6.80;;;7.40;65.50;;;;;;4998756;28;20029;-69
2024/01/09 00:06:35;;;;;;;11.88;7.28;;;7.40;65.60;;;;;;4998156;28;20097;-69
2024/01/09 00:09:02;;;;;;;12.88;7.40;;;7.30;65.70;;;;;;4997315;28;20377;-69
2024/01/09 00:11:29;;;;;;;12.30;7.05;;;7.30;65.80;;;;;;4998370;28;20038;-69
2024/01/09 00:13:55;;;;;;;12.18;6.97;;;7.30;66.00;;;;;;4998347;28;20498;-69
2024/01/09 00:16:22;;;;;;;10.52;6.22;;;7.20;66.00;;;;;;4998502;28;20065;-69
2024/01/09 00:18:53;;;;;;;17.27;8.60;;;7.20;66.00;;;;;;4998243;28;20061;-69
2024/01/09 00:21:22;;;;;;;16.25;8.02;;;7.10;66.10;;;;;;4998195;28;20053;-69
2024/01/09 00:23:49;;;;;;;14.50;8.07;;;7.10;66.30;;;;;;4997913;28;20049;-69
2024/01/09 00:26:15;;;;;;;13.57;7.00;;;7.00;66.40;;;;;;4997908;28;20026;-69
2024/01/09 00:28:41;;;;;;;12.80;7.55;;;7.00;66.50;;;;;;4998339;28;20023;-69
2024/01/09 00:31:07;;;;;;;14.25;7.50;;;7.00;66.50;;;;;;4997834;28;20053;-69
2024/01/09 00:33:33;;;;;;;12.30;7.07;;;6.90;66.70;;;;;;4997779;28;20054;-69
2024/01/09 00:38:24;;;;;;;14.50;7.28;;;6.90;66.80;;;;;;4997606;28;20058;-69
2024/01/09 00:40:50;;;;;;;16.55;7.97;;;6.80;66.90;;;;;;4997469;28;20113;-69
2024/01/09 00:43:16;;;;;;;15.13;7.93;;;6.70;67.00;;;;;;4997807;28;20022;-69
2024/01/09 00:45:42;;;;;;;15.77;7.68;;;6.70;67.10;;;;;;4997741;28;20052;-69
2024/01/09 00:48:08;;;;;;;14.57;7.55;;;6.70;67.00;;;;;;4997400;28;20042;-69
2024/01/09 00:50:34;;;;;;;19.95;9.13;;;6.60;67.10;;;;;;4997382;28;20097;-69
2024/01/09 00:53:00;;;;;;;17.65;9.50;;;6.60;67.20;;;;;;4997376;28;20027;-69
2024/01/09 00:55:26;;;;;;;18.08;9.25;;;6.60;67.20;;;;;;4997810;28;20033;-69
2024/01/09 00:57:52;;;;;;;16.95;8.35;;;6.50;67.30;;;;;;4997213;28;20018;-69
2024/01/09 01:00:18;;;;;;;22.08;9.50;;;6.50;67.30;;;;;;4997741;28;20057;-69
2024/01/09 01:02:44;;;;;;;19.52;9.43;;;6.40;67.50;;;;;;4997111;28;20060;-69
2024/01/09 01:05:15;;;;;;;19.75;9.35;;;6.40;67.50;;;;;;4997125;28;20050;-69
2024/01/09 01:07:41;;;;;;;15.60;8.82;;;6.40;67.50;;;;;;4998075;28;20105;-69
2024/01/09 01:10:07;;;;;;;18.65;9.00;;;6.30;67.60;;;;;;4997289;28;20076;-69
2024/01/09 01:12:33;;;;;;;19.00;9.70;;;6.30;67.70;;;;;;4997210;28;20037;-69
2024/01/09 01:14:59;;;;;;;20.58;10.73;;;6.30;67.70;;;;;;4997230;28;20364;-70
2024/01/09 01:17:25;;;;;;;23.92;11.38;;;6.30;67.80;;;;;;4997116;28;20026;-69
2024/01/09 01:19:51;;;;;;;25.48;12.25;;;6.30;67.70;;;;;;4996834;28;20090;-69
2024/01/09 01:22:17;;;;;;;24.92;12.35;;;6.20;67.80;;;;;;4997237;28;20153;-69
2024/01/09 01:24:43;;;;;;;18.85;10.50;;;6.20;67.80;;;;;;4996744;28;20038;-69
2024/01/09 01:27:08;;;;;;;15.25;8.15;;;6.10;68.00;;;;;;4997152;28;20022;-69
2024/01/09 01:29:34;;;;;;;16.42;8.35;;;6.10;68.10;;;;;;4996910;28;20447;-69
2024/01/09 01:32:00;;;;;;;17.15;8.13;;;6.10;68.10;;;;;;4996879;28;20385;-69
2024/01/09 01:34:26;;;;;;;14.32;8.05;;;6.10;68.10;;;;;;4996607;28;20045;-69
2024/01/09 01:36:52;;;;;;;18.15;9.13;;;6.10;68.20;;;;;;4996299;28;20018;-69
2024/01/09 01:39:18;;;;;;;14.23;7.88;;;6.00;68.20;;;;;;4996761;28;20080;-69
2024/01/09 01:41:44;;;;;;;14.13;7.90;;;6.00;68.20;;;;;;4996369;28;20034;-69
2024/01/09 01:44:17;;;;;;;14.50;7.82;;;6.00;68.40;;;;;;4996934;28;20500;-69
2024/01/09 01:46:45;;;;;;;17.70;8.73;;;6.00;68.50;;;;;;4996004;28;20053;-69
2024/01/09 01:49:12;;;;;;;13.25;7.90;;;5.90;68.40;;;;;;4996560;28;20026;-69
2024/01/09 01:51:39;;;;;;;14.50;8.52;;;5.90;68.50;;;;;;4996294;28;20026;-69
2024/01/09 01:54:06;;;;;;;13.88;8.10;;;5.90;68.50;;;;;;4995245;28;20069;-69
2024/01/09 01:56:32;;;;;;;15.27;8.23;;;5.90;68.70;;;;;;4996158;28;20026;-69
2024/01/09 01:58:59;;;;;;;16.33;8.52;;;5.90;68.70;;;;;;4996399;28;20037;-69
2024/01/09 02:01:25;;;;;;;15.35;8.30;;;5.80;68.70;;;;;;4995232;28;20109;-69
2024/01/09 02:03:52;;;;;;;14.50;7.97;;;5.80;68.70;;;;;;4996341;28;20054;-69
2024/01/09 02:06:18;;;;;;;17.42;9.43;;;5.70;68.80;;;;;;4995990;28;20060;-69
2024/01/09 02:08:45;;;;;;;15.48;8.65;;;5.70;68.80;;;;;;4996539;28;20325;-69
2024/01/09 02:11:11;;;;;;;15.88;8.65;;;5.70;68.90;;;;;;4996264;28;20445;-69
2024/01/09 02:13:37;;;;;;;17.77;9.30;;;5.70;68.70;;;;;;4996235;28;20045;-69
2024/01/09 02:16:03;;;;;;;16.35;8.98;;;5.60;68.70;;;;;;4995939;28;20030;-69
2024/01/09 02:18:29;;;;;;;21.73;10.40;;;5.60;69.00;;;;;;4996155;28;20116;-69
2024/01/09 02:20:55;;;;;;;15.38;9.15;;;5.60;69.10;;;;;;4996372;28;20440;-69
2024/01/09 02:23:20;;;;;;;16.02;8.93;;;5.50;69.30;;;;;;4996116;28;20032;-68
2024/01/09 02:25:47;;;;;;;17.92;9.57;;;5.50;69.40;;;;;;4996131;28;20384;-69
2024/01/09 02:28:30;;;;;;;19.77;10.32;;;5.40;69.30;;;;;;4996025;28;20027;-69
2024/01/09 02:30:56;;;;;;;22.40;10.68;;;5.40;69.30;;;;;;4996371;28;20417;-69
2024/01/09 02:33:23;;;;;;;20.00;10.10;;;5.40;69.70;;;;;;4994902;28;20101;-69
2024/01/09 02:35:49;;;;;;;18.00;9.95;;;5.30;69.60;;;;;;4996213;28;20027;-69
2024/01/09 02:38:16;;;;;;;17.65;9.82;;;5.30;69.60;;;;;;4995431;28;20069;-69
2024/01/09 02:40:41;;;;;;;15.13;9.00;;;5.30;69.40;;;;;;4995834;28;20038;-69
2024/01/09 02:43:07;;;;;;;18.70;9.73;;;5.20;69.60;;;;;;4995673;28;20030;-69
2024/01/09 02:45:33;;;;;;;19.08;10.52;;;5.20;69.70;;;;;;4995637;28;20022;-69
2024/01/09 02:47:59;;;;;;;17.90;9.63;;;5.10;69.90;;;;;;4995820;28;20030;-69
2024/01/09 02:50:25;;;;;;;18.75;9.50;;;5.10;69.90;;;;;;4995604;28;20050;-69
2024/01/09 02:52:51;;;;;;;17.92;9.25;;;5.10;69.90;;;;;;4995580;28;20481;-69
2024/01/09 02:55:17;;;;;;;21.02;10.30;;;5.10;69.80;;;;;;4995849;28;20026;-69
2024/01/09 02:57:43;;;;;;;22.77;10.90;;;5.00;70.00;;;;;;4994837;28;20026;-70
2024/01/09 03:00:10;;;;;;;19.08;10.38;;;5.00;70.20;;;;;;4999430;28;20061;-69
2024/01/09 03:02:37;;;;;;;18.42;10.27;;;4.90;70.10;;;;;;4999577;28;20042;-69
2024/01/09 03:05:09;;;;;;;20.90;10.27;;;4.90;70.20;;;;;;4999627;28;20368;-69
2024/01/09 03:07:35;;;;;;;23.05;11.45;;;4.90;69.90;;;;;;4999541;28;20023;-69
2024/01/09 03:10:02;;;;;;;21.05;10.07;;;4.90;70.40;;;;;;4999206;28;20364;-69
2024/01/09 03:12:28;;;;;;;21.55;11.77;;;4.80;70.40;;;;;;4999758;28;20395;-69
2024/01/09 03:14:53;;;;;;;22.25;11.38;;;4.80;70.50;;;;;;4999424;28;20097;-69
2024/01/09 03:17:19;;;;;;;18.73;10.50;;;4.70;70.60;;;;;;4999199;28;20031;-69
2024/01/09 03:19:45;;;;;;;22.23;12.30;;;4.70;70.70;;;;;;4999325;28;20113;-69
2024/01/09 03:22:11;;;;;;;22.27;12.13;;;4.80;70.80;;;;;;4999471;28;20432;-69
2024/01/09 03:24:37;;;;;;;23.98;12.30;;;4.80;70.90;;;;;;4999477;28;20037;-69
2024/01/09 03:27:04;;;;;;;24.48;11.75;;;4.80;71.00;;;;;;4999127;28;20033;-69
2024/01/09 03:29:29;;;;;;;23.92;12.38;;;4.80;70.90;;;;;;4997992;28;20373;-69
2024/01/09 03:31:56;;;;;;;20.15;10.80;;;4.80;70.80;;;;;;4999436;28;20040;-69
2024/01/09 03:34:22;;;;;;;22.15;12.05;;;4.80;71.20;;;;;;4999087;28;20073;-69
2024/01/09 03:36:48;;;;;;;22.27;11.45;;;4.80;71.00;;;;;;4998459;28;20034;-68
2024/01/09 03:39:14;;;;;;;20.45;10.98;;;4.90;70.90;;;;;;4999329;28;20054;-69
2024/01/09 03:41:42;;;;;;;21.42;10.77;;;4.80;70.80;;;;;;4998584;28;20038;-69
2024/01/09 03:44:09;;;;;;;23.02;11.65;;;4.80;71.00;;;;;;4998614;28;20110;-69
2024/01/09 03:46:35;;;;;;;20.75;11.45;;;4.80;70.90;;;;;;4998486;28;20081;-69
2024/01/09 03:49:01;;;;;;;21.08;12.70;;;4.90;70.80;;;;;;4998604;28;20026;-69
2024/01/09 03:51:27;;;;;;;23.48;11.70;;;4.80;71.40;;;;;;4998540;28;20032;-69
2024/01/09 03:53:53;;;;;;;25.92;12.75;;;4.70;71.50;;;;;;4998465;28;20030;-69
2024/01/09 03:56:19;;;;;;;20.70;11.35;;;4.70;71.40;;;;;;4998836;28;20030;-69
2024/01/09 03:58:45;;;;;;;18.38;9.90;;;4.70;71.30;;;;;;4998893;28;20026;-69
2024/01/09 04:01:10;;;;;;;19.92;11.48;;;4.80;71.20;;;;;;4998253;28;20026;-69
2024/01/09 04:03:36;;;;;;;21.67;12.02;;;4.80;71.20;;;;;;4998242;28;20121;-69
2024/01/09 04:06:03;;;;;;;21.27;11.50;;;4.80;71.00;;;;;;4998767;28;20069;-69
2024/01/09 04:08:29;;;;;;;20.77;10.95;;;4.80;70.90;;;;;;4998145;28;20026;-69
2024/01/09 04:10:55;;;;;;;23.65;11.52;;;4.80;71.00;;;;;;4997868;28;20033;-69
2024/01/09 04:13:21;;;;;;;18.77;10.05;;;4.90;70.80;;;;;;4998094;28;20395;-69
2024/01/09 04:15:47;;;;;;;20.90;11.13;;;4.90;70.70;;;;;;4998277;28;20046;-69
2024/01/09 04:18:13;;;;;;;21.10;11.45;;;4.90;70.50;;;;;;4998223;28;20061;-69
2024/01/09 04:20:42;;;;;;;19.58;11.05;;;4.90;70.50;;;;;;4998267;28;20463;-69
2024/01/09 04:23:07;;;;;;;18.80;10.00;;;4.90;70.20;;;;;;4997938;28;20018;-69
2024/01/09 04:25:34;;;;;;;21.45;10.73;;;4.90;70.20;;;;;;4998151;28;20022;-69
2024/01/09 04:28:00;;;;;;;21.05;12.20;;;4.90;70.20;;;;;;4997958;28;20026;-69
2024/01/09 04:30:26;;;;;;;23.40;10.75;;;4.90;69.90;;;;;;4997829;28;20348;-69
2024/01/09 04:32:52;;;;;;;19.90;10.18;;;4.90;69.90;;;;;;4998283;28;20069;-69
2024/01/09 04:35:18;;;;;;;19.35;10.43;;;4.90;69.90;;;;;;4997989;28;20040;-69
2024/01/09 04:37:44;;;;;;;19.33;11.35;;;4.90;69.90;;;;;;4997531;28;20066;-69
2024/01/09 04:40:10;;;;;;;21.45;10.93;;;4.90;69.80;;;;;;4997918;28;20096;-69
2024/01/09 04:42:37;;;;;;;20.15;10.23;;;4.90;69.80;;;;;;4997496;28;20034;-69
2024/01/09 04:45:03;;;;;;;20.20;10.93;;;4.90;69.80;;;;;;4997543;28;20098;-69
2024/01/09 04:47:29;;;;;;;17.73;10.02;;;4.80;69.80;;;;;;4997914;28;20436;-69
2024/01/09 04:49:55;;;;;;;17.67;9.25;;;4.80;69.90;;;;;;4997945;28;20033;-69
2024/01/09 04:52:21;;;;;;;17.88;9.27;;;4.80;69.90;;;;;;4997364;28;20023;-69
2024/01/09 04:54:47;;;;;;;18.17;9.73;;;4.80;69.80;;;;;;4997346;28;20030;-69
2024/01/09 04:57:13;;;;;;;16.63;8.65;;;4.80;69.80;;;;;;4996615;28;20018;-69
2024/01/09 04:59:43;;;;;;;16.08;9.05;;;4.80;69.70;;;;;;4997730;28;20125;-69
2024/01/09 05:02:09;;;;;;;20.05;9.73;;;4.80;69.60;;;;;;4997435;28;20093;-69
2024/01/09 05:04:35;;;;;;;15.85;8.77;;;4.80;69.70;;;;;;4997664;28;20385;-69
2024/01/09 05:07:01;;;;;;;15.75;9.02;;;4.80;69.60;;;;;;4997596;28;20029;-69
2024/01/09 05:09:28;;;;;;;16.88;9.65;;;4.80;69.60;;;;;;4997307;28;20030;-69
2024/01/09 05:11:54;;;;;;;20.52;10.15;;;4.80;69.60;;;;;;4997536;28;20022;-69
2024/01/09 05:14:20;;;;;;;15.65;8.50;;;4.80;69.60;;;;;;4996957;28;20029;-69
2024/01/09 05:16:46;;;;;;;18.92;9.05;;;4.80;69.50;;;;;;4996905;28;20019;-69
2024/01/09 05:19:12;;;;;;;15.63;9.38;;;4.70;69.50;;;;;;4996869;28;20030;-69
2024/01/09 05:21:37;;;;;;;21.90;10.52;;;4.70;69.60;;;;;;4995894;28;20027;-69
2024/01/09 05:24:04;;;;;;;20.88;10.20;;;4.60;69.70;;;;;;4997055;28;20018;-69
2024/01/09 05:26:30;;;;;;;19.27;9.35;;;4.60;69.80;;;;;;4996946;28;20113;-69
2024/01/09 05:28:56;;;;;;;18.00;9.40;;;4.50;69.80;;;;;;4996714;28;20046;-69
2024/01/09 05:31:23;;;;;;;16.45;9.15;;;4.50;69.90;;;;;;4997207;28;20056;-69
2024/01/09 05:33:49;;;;;;;24.02;10.52;;;4.60;70.00;;;;;;4996608;28;20388;-69
2024/01/09 05:36:21;;;;;;;21.50;10.55;;;4.60;70.00;;;;;;4996523;28;20033;-69
2024/01/09 05:38:51;;;;;;;15.38;8.35;;;4.60;69.90;;;;;;4997184;28;20042;-69
2024/01/09 05:41:23;;;;;;;16.90;8.57;;;4.60;69.90;;;;;;4995478;28;20113;-69
2024/01/09 05:43:49;;;;;;;18.70;9.25;;;4.60;69.90;;;;;;4996449;28;20101;-69
2024/01/09 05:46:16;;;;;;;20.00;9.65;;;4.60;69.90;;;;;;4996394;28;20365;-69
2024/01/09 05:48:42;;;;;;;16.30;9.70;;;4.60;69.80;;;;;;4996273;28;20022;-69
2024/01/09 05:51:09;;;;;;;15.80;8.45;;;4.60;69.70;;;;;;4996575;28;20101;-69
2024/01/09 05:53:36;;;;;;;14.15;9.15;;;4.60;69.70;;;;;;5630047;23;20060;-69
2024/01/09 05:56:06;;;;;;;20.80;9.23;;;4.50;69.60;;;;;;5015910;28;20080;-69
2024/01/09 05:58:33;;;;;;;18.80;9.15;;;4.50;69.70;;;;;;5016115;28;20033;-69
2024/01/09 06:00:59;;;;;;;20.60;9.43;;;4.40;69.70;;;;;;5015987;28;20105;-69
2024/01/09 06:03:25;;;;;;;19.02;9.20;;;4.40;69.90;;;;;;5010849;28;20061;-69
2024/01/09 06:05:51;;;;;;;17.35;9.18;;;4.40;69.90;;;;;;4996348;28;20043;-69
2024/01/09 06:08:17;;;;;;;17.15;9.00;;;4.40;69.70;;;;;;4996144;28;20038;-69
2024/01/09 06:10:43;;;;;;;17.55;10.10;;;4.40;69.60;;;;;;4996324;28;20022;-69
2024/01/09 06:13:09;;;;;;;18.95;9.13;;;4.40;69.60;;;;;;4995911;28;20026;-69
2024/01/09 06:15:35;;;;;;;18.75;8.85;;;4.30;69.70;;;;;;4996476;28;20072;-69
2024/01/09 06:18:01;;;;;;;17.65;9.43;;;4.30;69.90;;;;;;4996472;28;20038;-69
2024/01/09 06:20:27;;;;;;;14.73;8.73;;;4.30;70.00;;;;;;4996423;28;20026;-69
2024/01/09 06:22:53;;;;;;;16.95;9.05;;;4.20;70.00;;;;;;4996050;28;20353;-69
2024/01/09 06:25:19;;;;;;;18.63;10.07;;;4.20;70.10;;;;;;4996100;28;20455;-69
2024/01/09 06:27:45;;;;;;;18.45;9.68;;;4.20;70.10;;;;;;4995754;28;20030;-69
2024/01/09 06:30:11;;;;;;;18.20;9.68;;;4.20;70.20;;;;;;4995830;28;20025;-69
2024/01/09 06:32:37;;;;;;;18.98;9.98;;;4.10;70.20;;;;;;4995512;28;20105;-69
2024/01/09 06:35:04;;;;;;;18.60;9.88;;;4.20;70.20;;;;;;4995612;28;20052;-70
2024/01/09 06:37:30;;;;;;;20.77;10.43;;;4.10;70.20;;;;;;4996246;28;20033;-70
2024/01/09 06:39:56;;;;;;;17.65;9.55;;;4.10;70.40;;;;;;4996190;28;20101;-69
2024/01/09 06:42:21;;;;;;;19.30;11.20;;;4.10;70.50;;;;;;4995865;28;20073;-69
2024/01/09 06:44:49;;;;;;;24.42;12.02;;;4.10;70.60;;;;;;4995902;28;20022;-69
2024/01/09 06:47:15;;;;;;;27.13;13.82;;;4.10;70.50;;;;;;4995565;28;20110;-69
2024/01/09 06:49:42;;;;;;;23.52;12.82;;;4.20;70.60;;;;;;4996101;28;20062;-69
2024/01/09 06:52:07;;;;;;;21.20;11.48;;;4.20;70.50;;;;;;4995837;28;20046;-69
2024/01/09 06:54:33;;;;;;;26.17;12.40;;;4.20;70.40;;;;;;4995313;28;20046;-69
2024/01/09 06:56:59;;;;;;;21.08;12.05;;;4.20;70.50;;;;;;4995527;28;20110;-69
2024/01/09 06:59:25;;;;;;;23.25;11.70;;;4.10;70.60;;;;;;5289309;23;20054;-69
2024/01/09 07:01:51;;;;;;;34.65;16.88;;;4.20;70.70;;;;;;5015075;28;20075;-67
2024/01/09 07:04:17;;;;;;;27.02;14.40;;;4.20;70.60;;;;;;5015012;28;20029;-66
2024/01/09 07:06:43;;;;;;;25.83;14.90;;;4.20;70.70;;;;;;5015348;28;20029;-64
2024/01/09 07:09:09;;;;;;;39.47;20.13;;;4.20;70.60;;;;;;5005724;28;20442;-64
2024/01/09 07:11:36;;;;;;;39.15;19.77;;;4.20;70.50;;;;;;4995634;28;20018;-67
2024/01/09 07:14:02;;;;;;;40.08;20.33;;;4.30;70.50;;;;;;4995640;28;20034;-67
2024/01/09 07:16:28;;;;;;;40.50;18.60;;;4.20;70.50;;;;;;4995660;28;20161;-68
2024/01/09 07:18:54;;;;;;;34.83;17.52;;;4.20;70.60;;;;;;4995321;28;20110;-68
2024/01/09 07:21:20;;;;;;;33.90;15.52;;;4.30;70.60;;;;;;4995269;28;20023;-68
2024/01/09 07:23:47;;;;;;;25.23;13.43;;;4.20;70.60;;;;;;4995582;28;20023;-68
2024/01/09 07:26:13;;;;;;;27.75;13.57;;;4.30;70.60;;;;;;4995306;28;20022;-68
2024/01/09 07:28:41;;;;;;;31.45;15.95;;;4.30;70.60;;;;;;4995203;28;20034;-70
2024/01/09 07:31:08;;;;;;;31.08;17.88;;;4.30;70.50;;;;;;5622206;23;20050;-70
2024/01/09 07:33:34;;;;;;;31.63;16.73;;;4.30;70.60;;;;;;5015131;28;20026;-70
2024/01/09 07:35:59;;;;;;;28.42;15.43;;;4.30;70.80;;;;;;5015072;28;20044;-70
2024/01/09 07:38:25;;;;;;;28.83;15.63;;;4.40;71.00;;;;;;5014833;28;20355;-70
2024/01/09 07:40:51;;;;;;;28.23;15.05;;;4.40;71.00;;;;;;5010239;28;20058;-66
2024/01/09 07:43:17;;;;;;;27.08;14.18;;;4.40;70.90;;;;;;4995184;28;20068;-68
2024/01/09 07:45:43;;;;;;;41.00;21.13;;;4.50;71.00;;;;;;5290579;23;20054;-66
2024/01/09 07:48:09;;;;;;;36.25;17.90;;;4.50;71.40;;;;;;5018090;28;20030;-66
2024/01/09 07:50:35;;;;;;;37.03;17.13;;;4.60;71.60;;;;;;5018723;28;20025;-66
2024/01/09 07:53:01;;;;;;;31.17;15.88;;;4.80;71.80;;;;;;5018393;28;20117;-67
2024/01/09 07:55:27;;;;;;;39.92;17.50;;;4.90;71.60;;;;;;5008946;28;20459;-68
2024/01/09 07:57:53;;;;;;;41.83;18.45;;;4.90;71.30;;;;;;4998994;28;20102;-67
2024/01/09 08:00:19;;;;;;;35.78;17.67;;;5.00;71.00;;;;;;4998667;28;20035;-66
2024/01/09 08:02:45;;;;;;;34.25;16.23;;;5.20;71.20;;;;;;5262642;23;20085;-65
2024/01/09 08:05:11;;;;;;;41.85;20.52;;;5.20;71.20;;;;;;4998326;28;20062;-66
2024/01/09 08:07:37;;;;;;;42.78;20.30;;;5.30;71.10;;;;;;4998242;28;20117;-68
2024/01/09 08:10:04;;;;;;;33.38;16.63;;;5.40;71.00;;;;;;4998701;28;20021;-66
2024/01/09 08:12:30;;;;;;;39.83;17.73;;;5.50;70.90;;;;;;4988171;28;20035;-67
2024/01/09 08:14:56;;;;;;;28.52;14.60;;;5.60;71.00;;;;;;4979177;28;20054;-69
2024/01/09 08:17:22;;;;;;;30.50;15.30;;;5.70;70.80;;;;;;4978864;28;20066;-69
2024/01/09 08:19:47;;;;;;;29.48;15.85;;;5.80;70.10;;;;;;4978580;28;20467;-67
2024/01/09 08:22:13;;;;;;;33.67;17.60;;;5.80;69.80;;;;;;4978665;28;20027;-64
2024/01/09 08:24:39;;;;;;;33.65;17.17;;;5.90;69.10;;;;;;4978925;28;20031;-65
2024/01/09 08:27:06;;;;;;;30.58;15.55;;;5.90;69.70;;;;;;4978401;28;20027;-70
2024/01/09 08:29:32;;;;;;;34.83;19.10;;;5.90;69.10;;;;;;4978392;28;20037;-68
2024/01/09 08:31:58;;;;;;;31.98;18.08;;;6.00;69.40;;;;;;4978647;28;20506;-66
2024/01/09 08:34:24;;;;;;;33.45;17.67;;;5.90;69.30;;;;;;4978330;28;20034;-65
2024/01/09 08:36:50;;;;;;;30.13;15.73;;;6.00;69.60;;;;;;4978790;28;20022;-67
2024/01/09 08:39:16;;;;;;;27.38;15.18;;;6.00;69.40;;;;;;4978467;28;20027;-67
2024/01/09 08:41:42;;;;;;;29.02;14.20;;;6.10;69.20;;;;;;4978041;28;20038;-69
2024/01/09 08:44:09;;;;;;;31.67;13.85;;;6.10;69.70;;;;;;4978639;28;20027;-65
2024/01/09 08:46:35;;;;;;;22.80;12.40;;;6.10;68.70;;;;;;4961121;28;20034;-68
2024/01/09 08:49:01;;;;;;;23.83;12.50;;;6.10;68.90;;;;;;4978347;28;20022;-66
2024/01/09 08:51:27;;;;;;;22.52;12.32;;;6.10;68.70;;;;;;4976955;28;20046;-67
2024/01/09 08:53:54;;;;;;;21.17;11.07;;;6.20;68.70;;;;;;4977921;28;20089;-67
2024/01/09 08:56:20;;;;;;;23.55;11.13;;;6.20;68.00;;;;;;4978021;28;20023;-67
2024/01/09 08:58:46;;;;;;;21.00;11.13;;;6.20;67.40;;;;;;4977845;28;20034;-66
2024/01/09 09:01:12;;;;;;;23.27;11.27;;;6.30;67.90;;;;;;4977978;28;20073;-66
2024/01/09 09:03:38;;;;;;;21.80;11.60;;;6.30;67.70;;;;;;4977519;28;20047;-69
2024/01/09 09:06:04;;;;;;;24.23;12.02;;;6.40;68.30;;;;;;5289111;23;20069;-68
2024/01/09 09:08:30;;;;;;;19.13;10.50;;;6.40;67.80;;;;;;5016618;28;20021;-68
2024/01/09 09:10:56;;;;;;;21.33;11.68;;;6.40;66.60;;;;;;5016581;28;20038;-68
2024/01/09 09:13:23;;;;;;;21.15;11.77;;;6.50;66.40;;;;;;5016875;28;20093;-67
2024/01/09 09:15:49;;;;;;;21.10;11.30;;;6.50;66.70;;;;;;5005395;28;20089;-66
2024/01/09 09:18:15;;;;;;;19.10;11.02;;;6.60;65.60;;;;;;4995945;28;20431;-70
2024/01/09 09:20:41;;;;;;;17.92;10.77;;;6.60;65.60;;;;;;4996871;28;20088;-70
2024/01/09 09:23:07;;;;;;;20.52;11.15;;;6.60;65.00;;;;;;4997260;28;20026;-68
2024/01/09 09:25:33;;;;;;;20.17;11.65;;;6.60;66.00;;;;;;4997221;28;20037;-67
2024/01/09 09:27:59;;;;;;;32.55;13.32;;;6.60;65.70;;;;;;5271784;23;20090;-66
2024/01/09 09:30:26;;;;;;;27.58;14.32;;;6.60;65.80;;;;;;5292679;23;20058;-68
2024/01/09 09:32:54;;;;;;;29.80;14.15;;;6.60;65.40;;;;;;5016232;28;20022;-70
2024/01/09 09:35:20;;;;;;;32.15;14.30;;;6.70;66.20;;;;;;5016202;28;20117;-69
2024/01/09 09:37:46;;;;;;;26.15;13.98;;;6.80;66.30;;;;;;5016650;28;20432;-70
2024/01/09 09:40:12;;;;;;;20.40;11.50;;;6.80;65.90;;;;;;5005811;28;20037;-69
2024/01/09 09:42:40;;;;;;;20.15;11.25;;;6.90;65.70;;;;;;4996337;28;20030;-69
2024/01/09 09:45:11;;;;;;;20.38;10.70;;;6.90;65.90;;;;;;4996416;28;20084;-68
2024/01/09 09:47:39;;;;;;;26.50;12.45;;;6.90;66.20;;;;;;4995487;28;20033;-70
2024/01/09 09:50:08;;;;;;;23.08;11.80;;;7.00;65.80;;;;;;4996550;28;20033;-67
2024/01/09 09:52:40;;;;;;;21.65;11.60;;;7.10;65.30;;;;;;4995368;28;20034;-67
2024/01/09 09:55:08;;;;;;;21.38;11.82;;;7.10;65.60;;;;;;4995345;28;20514;-69
2024/01/09 09:57:35;;;;;;;24.05;12.75;;;7.10;65.40;;;;;;4996731;28;20124;-71
2024/01/09 10:00:01;;;;;;;24.92;12.60;;;7.20;66.10;;;;;;4996114;28;20118;-68
2024/01/09 10:02:30;;;;;;;22.73;12.40;;;7.30;66.80;;;;;;5261588;23;20379;-66
2024/01/09 10:05:04;;;;;;;24.73;13.60;;;7.30;67.20;;;;;;4996432;28;20069;-65
2024/01/09 10:07:32;;;;;;;26.27;13.75;;;7.40;67.00;;;;;;4995912;28;20073;-68
2024/01/09 10:10:01;;;;;;;25.63;13.95;;;7.50;67.30;;;;;;4995217;28;20014;-68
2024/01/09 10:12:27;;;;;;;23.23;12.57;;;7.60;67.00;;;;;;4983501;28;20031;-66
2024/01/09 10:15:11;;;;;;;25.80;13.93;;;7.60;66.70;;;;;;4977070;28;20038;-68
2024/01/09 10:17:38;;;;;;;26.40;14.48;;;7.80;66.40;;;;;;4976454;28;20035;-66
2024/01/09 10:20:05;;;;;;;24.63;12.48;;;7.80;65.90;;;;;;4976684;28;20037;-69
2024/01/09 10:22:35;;;;;;;22.45;12.55;;;7.90;66.10;;;;;;4976251;28;20073;-69
2024/01/09 10:25:12;;;;;;;21.73;12.68;;;7.90;65.90;;;;;;4976636;28;20047;-70
2024/01/09 10:27:40;;;;;;;22.48;11.80;;;7.90;65.20;;;;;;4977144;28;20059;-70
2024/01/09 10:30:08;;;;;;;23.92;11.88;;;8.00;65.10;;;;;;4976328;28;20030;-67
2024/01/09 10:32:36;;;;;;;21.55;12.25;;;8.10;65.30;;;;;;4976190;28;20031;-69
2024/01/09 10:35:03;;;;;;;23.00;12.85;;;8.20;64.80;;;;;;4976313;28;20022;-66
2024/01/09 10:37:34;;;;;;;21.88;11.82;;;8.30;64.20;;;;;;4976568;28;20090;-67
2024/01/09 10:40:00;;;;;;;23.08;11.63;;;8.40;64.10;;;;;;4976497;28;20448;-68
2024/01/09 10:42:27;;;;;;;19.45;10.75;;;8.50;62.10;;;;;;4976372;28;20122;-67
2024/01/09 10:44:58;;;;;;;21.20;12.45;;;8.60;63.70;;;;;;4976444;28;20045;-69
2024/01/09 10:47:27;;;;;;;14.43;8.00;;;8.70;62.40;;;;;;4977252;28;20077;-67
2024/01/09 10:49:54;;;;;;;15.88;8.90;;;8.70;59.50;;;;;;4976375;28;20111;-68
2024/01/09 10:52:21;;;;;;;14.45;8.05;;;8.80;60.40;;;;;;4976331;28;20031;-67
2024/01/09 10:54:47;;;;;;;14.75;7.63;;;8.90;58.40;;;;;;4976649;28;20117;-66
2024/01/09 10:57:15;;;;;;;12.45;6.93;;;8.80;52.30;;;;;;4975904;28;20121;-68
2024/01/09 10:59:42;;;;;;;11.10;6.47;;;8.90;52.20;;;;;;4975743;28;20031;-68
2024/01/09 11:02:16;;;;;;;12.85;6.70;;;8.80;53.50;;;;;;4975897;28;20129;-67
2024/01/09 11:04:45;;;;;;;14.10;6.78;;;8.80;53.40;;;;;;4976664;28;20440;-67
2024/01/09 11:07:16;;;;;;;12.02;6.78;;;8.80;54.00;;;;;;4976278;28;20094;-66
2024/01/09 11:09:47;;;;;;;13.23;6.90;;;8.90;54.10;;;;;;4976289;28;20023;-70
2024/01/09 11:12:50;;;;;;;12.68;7.13;;;8.90;51.30;;;;;;4976191;28;20041;-68
2024/01/09 11:15:43;;;;;;;11.50;6.65;;;8.90;52.00;;;;;;4935934;29;20357;-70
2024/01/09 11:18:13;;;;;;;10.73;6.05;;;8.90;51.20;;;;;;4935764;29;20031;-70
2024/01/09 11:20:39;;;;;;;14.02;7.05;;;8.90;51.70;;;;;;4937523;29;20454;-65
2024/01/09 11:23:05;;;;;;;12.82;7.18;;;8.90;51.20;;;;;;4939376;29;20074;-67
2024/01/09 11:25:33;;;;;;;12.32;6.68;;;9.00;49.70;;;;;;4939431;29;20083;-70
2024/01/09 11:28:00;;;;;;;11.77;6.95;;;9.00;50.60;;;;;;4939295;29;20502;-70
2024/01/09 11:30:27;;;;;;;12.73;7.18;;;9.10;48.90;;;;;;4939420;29;20043;-66
2024/01/09 11:32:56;;;;;;;16.48;7.57;;;9.10;51.00;;;;;;4923544;29;20035;-69
2024/01/09 11:35:25;;;;;;;13.15;7.13;;;9.10;49.10;;;;;;4939273;29;20038;-69
2024/01/09 11:37:51;;;;;;;12.10;6.35;;;9.20;51.20;;;;;;4939216;29;20071;-68
2024/01/09 11:40:19;;;;;;;13.15;6.97;;;9.30;53.40;;;;;;4939416;29;20032;-68
2024/01/09 11:42:50;;;;;;;12.95;6.95;;;9.40;53.70;;;;;;4939329;29;20107;-67
2024/01/09 11:45:30;;;;;;;13.20;6.95;;;9.50;54.00;;;;;;4939085;29;20036;-69
2024/01/09 11:47:56;;;;;;;14.20;8.13;;;9.50;51.40;;;;;;4923625;29;20020;-66
2024/01/09 11:50:22;;;;;;;13.73;8.38;;;9.50;48.80;;;;;;4978182;28;20357;-66
2024/01/09 11:52:49;;;;;;;17.83;9.10;;;9.50;49.90;;;;;;4979105;28;20101;-69
2024/01/09 11:55:18;;;;;;;14.07;7.90;;;9.50;50.20;;;;;;4978814;28;20027;-69
2024/01/09 11:57:44;;;;;;;13.30;8.00;;;9.40;49.60;;;;;;4979289;28;20073;-69
2024/01/09 12:00:10;;;;;;;15.27;7.00;;;9.40;50.80;;;;;;4978072;28;20038;-69
2024/01/09 12:02:37;;;;;;;13.68;7.70;;;9.50;51.20;;;;;;4978701;28;20539;-65
2024/01/09 12:05:04;;;;;;;15.55;7.75;;;9.60;52.10;;;;;;4979440;28;20022;-70
2024/01/09 12:07:33;;;;;;;14.20;7.65;;;9.70;50.60;;;;;;4979126;28;20034;-69
2024/01/09 12:10:01;;;;;;;14.23;7.47;;;9.60;48.90;;;;;;4979057;28;20077;-68
2024/01/09 12:12:27;;;;;;;12.30;7.00;;;9.60;50.00;;;;;;4978969;28;20023;-70
2024/01/09 12:14:57;;;;;;;14.40;8.13;;;9.70;51.20;;;;;;4978746;28;20031;-66
2024/01/09 12:17:33;;;;;;;13.50;7.43;;;9.90;50.10;;;;;;4979215;28;20106;-68
2024/01/09 12:20:01;;;;;;;12.95;7.78;;;9.90;49.30;;;;;;4978614;28;20449;-66
2024/01/09 12:22:27;;;;;;;13.05;7.13;;;9.90;50.10;;;;;;4978540;28;20019;-66
2024/01/09 12:24:54;;;;;;;12.88;7.85;;;9.90;50.20;;;;;;4974176;28;20027;-65
2024/01/09 12:27:26;;;;;;;14.18;7.07;;;10.00;47.70;;;;;;4978468;28;20205;-66
2024/01/09 12:29:52;;;;;;;12.70;6.70;;;10.00;49.70;;;;;;4978730;28;20331;-70
2024/01/09 12:32:21;;;;;;;11.60;6.20;;;10.10;49.90;;;;;;4977659;28;20031;-70
2024/01/09 12:34:47;;;;;;;13.65;6.95;;;10.10;49.80;;;;;;4978283;28;20432;-67
2024/01/09 12:37:13;;;;;;;13.63;7.03;;;10.20;48.20;;;;;;4978330;28;20122;-66
2024/01/09 12:39:40;;;;;;;10.95;6.53;;;10.20;47.00;;;;;;4978754;28;20425;-70
2024/01/09 12:42:12;;;;;;;12.70;7.00;;;10.30;49.30;;;;;;4978301;28;20105;-69